sensor_id;sensor_type;location;lat;lon;timestamp;temperature;humidity
57664;DHT22;43493;53.098;6.064;2022-08-21T00:01:16;16.90;99.90
57664;DHT22;43493;53.098;6.064;2022-08-21T00:03:42;16.90;99.90
57664;DHT22;43493;53.098;6.064;2022-08-21T00:06:08;16.90;99.90
57664;DHT22;43493;53.098;6.064;2022-08-21T00:08:34;16.90;99.90
57664;DHT22;43493;53.098;6.064;2022-08-21T00:10:59;16.90;99.90
57664;DHT22;43493;53.098;6.064;2022-08-21T00:13:25;16.80;99.90
57664;DHT22;43493;53.098;6.064;2022-08-21T00:15:51;16.80;99.90
57664;DHT22;43493;53.098;6.064;2022-08-21T00:18:18;16.80;99.90
57664;DHT22;43493;53.098;6.064;2022-08-21T00:20:44;16.80;99.90
57664;DHT22;43493;53.098;6.064;2022-08-21T00:23:10;16.70;99.90
57664;DHT22;43493;53.098;6.064;2022-08-21T00:25:37;16.80;99.90
57664;DHT22;43493;53.098;6.064;2022-08-21T00:28:03;16.60;99.90
57664;DHT22;43493;53.098;6.064;2022-08-21T00:30:30;16.70;99.90
57664;DHT22;43493;53.098;6.064;2022-08-21T00:32:56;16.60;99.90
57664;DHT22;43493;53.098;6.064;2022-08-21T00:35:26;16.60;99.90
57664;DHT22;43493;53.098;6.064;2022-08-21T00:37:52;16.60;99.90
57664;DHT22;43493;53.098;6.064;2022-08-21T00:40:23;16.60;99.90
57664;DHT22;43493;53.098;6.064;2022-08-21T00:42:49;16.70;99.90
57664;DHT22;43493;53.098;6.064;2022-08-21T00:45:15;16.60;99.90
57664;DHT22;43493;53.098;6.064;2022-08-21T00:47:41;16.50;99.90
57664;DHT22;43493;53.098;6.064;2022-08-21T00:50:09;16.60;99.90
57664;DHT22;43493;53.098;6.064;2022-08-21T00:52:36;16.50;99.90
57664;DHT22;43493;53.098;6.064;2022-08-21T00:55:05;16.50;99.90
57664;DHT22;43493;53.098;6.064;2022-08-21T00:57:54;16.50;99.90
57664;DHT22;43493;53.098;6.064;2022-08-21T01:00:31;16.40;99.90
57664;DHT22;43493;53.098;6.064;2022-08-21T01:03:00;16.40;99.90
57664;DHT22;43493;53.098;6.064;2022-08-21T01:05:25;16.50;99.90
57664;DHT22;43493;53.098;6.064;2022-08-21T01:07:53;16.50;99.90
57664;DHT22;43493;53.098;6.064;2022-08-21T01:10:19;16.40;99.90
57664;DHT22;43493;53.098;6.064;2022-08-21T01:12:45;16.30;99.90
57664;DHT22;43493;53.098;6.064;2022-08-21T01:15:13;16.20;99.90
57664;DHT22;43493;53.098;6.064;2022-08-21T01:17:41;16.20;99.90
57664;DHT22;43493;53.098;6.064;2022-08-21T01:20:09;16.20;99.90
57664;DHT22;43493;53.098;6.064;2022-08-21T01:22:36;16.20;99.90
57664;DHT22;43493;53.098;6.064;2022-08-21T01:25:05;16.20;99.90
57664;DHT22;43493;53.098;6.064;2022-08-21T01:27:31;16.20;99.90
57664;DHT22;43493;53.098;6.064;2022-08-21T01:30:13;16.20;99.90
57664;DHT22;43493;53.098;6.064;2022-08-21T01:32:40;16.30;99.90
57664;DHT22;43493;53.098;6.064;2022-08-21T01:35:07;16.20;99.90
57664;DHT22;43493;53.098;6.064;2022-08-21T01:37:33;16.20;99.90
57664;DHT22;43493;53.098;6.064;2022-08-21T01:39:59;16.20;99.90
57664;DHT22;43493;53.098;6.064;2022-08-21T01:42:25;16.20;99.90
57664;DHT22;43493;53.098;6.064;2022-08-21T01:44:51;16.20;99.90
57664;DHT22;43493;53.098;6.064;2022-08-21T01:47:17;16.10;99.90
57664;DHT22;43493;53.098;6.064;2022-08-21T01:49:44;16.10;99.90
57664;DHT22;43493;53.098;6.064;2022-08-21T01:52:10;16.10;99.90
57664;DHT22;43493;53.098;6.064;2022-08-21T01:54:37;16.10;99.90
57664;DHT22;43493;53.098;6.064;2022-08-21T01:57:03;16.10;99.90
57664;DHT22;43493;53.098;6.064;2022-08-21T01:59:30;16.10;99.90
57664;DHT22;43493;53.098;6.064;2022-08-21T02:01:56;16.10;99.90
57664;DHT22;43493;53.098;6.064;2022-08-21T02:04:22;16.10;99.90
57664;DHT22;43493;53.098;6.064;2022-08-21T02:06:48;16.00;99.90
57664;DHT22;43493;53.098;6.064;2022-08-21T02:09:14;16.00;99.90
57664;DHT22;43493;53.098;6.064;2022-08-21T02:11:41;16.00;99.90
57664;DHT22;43493;53.098;6.064;2022-08-21T02:14:11;16.00;99.90
57664;DHT22;43493;53.098;6.064;2022-08-21T02:16:38;16.00;99.90
57664;DHT22;43493;53.098;6.064;2022-08-21T02:19:04;16.00;99.90
57664;DHT22;43493;53.098;6.064;2022-08-21T02:21:31;16.00;99.90
57664;DHT22;43493;53.098;6.064;2022-08-21T02:23:57;16.00;99.90
57664;DHT22;43493;53.098;6.064;2022-08-21T02:26:23;16.00;99.90
57664;DHT22;43493;53.098;6.064;2022-08-21T02:28:49;16.00;99.90
57664;DHT22;43493;53.098;6.064;2022-08-21T02:31:14;16.00;99.90
57664;DHT22;43493;53.098;6.064;2022-08-21T02:33:41;16.00;99.90
57664;DHT22;43493;53.098;6.064;2022-08-21T02:36:08;16.10;99.90
57664;DHT22;43493;53.098;6.064;2022-08-21T02:38:35;16.00;99.90
57664;DHT22;43493;53.098;6.064;2022-08-21T02:41:09;16.10;99.90
57664;DHT22;43493;53.098;6.064;2022-08-21T02:43:35;16.00;99.90
57664;DHT22;43493;53.098;6.064;2022-08-21T02:46:02;16.00;99.90
57664;DHT22;43493;53.098;6.064;2022-08-21T02:48:31;16.00;99.90
57664;DHT22;43493;53.098;6.064;2022-08-21T02:50:58;16.00;99.90
57664;DHT22;43493;53.098;6.064;2022-08-21T02:53:25;16.00;99.90
57664;DHT22;43493;53.098;6.064;2022-08-21T02:55:52;16.00;99.90
57664;DHT22;43493;53.098;6.064;2022-08-21T02:58:31;15.90;99.90
57664;DHT22;43493;53.098;6.064;2022-08-21T03:00:57;15.90;99.90
57664;DHT22;43493;53.098;6.064;2022-08-21T03:03:24;16.00;99.90
57664;DHT22;43493;53.098;6.064;2022-08-21T03:05:50;16.00;99.90
57664;DHT22;43493;53.098;6.064;2022-08-21T03:08:18;15.90;99.90
57664;DHT22;43493;53.098;6.064;2022-08-21T03:10:46;15.90;99.90
57664;DHT22;43493;53.098;6.064;2022-08-21T03:13:13;15.90;99.90
57664;DHT22;43493;53.098;6.064;2022-08-21T03:15:39;16.00;99.90
57664;DHT22;43493;53.098;6.064;2022-08-21T03:18:06;15.90;99.90
57664;DHT22;43493;53.098;6.064;2022-08-21T03:20:34;16.00;99.90
57664;DHT22;43493;53.098;6.064;2022-08-21T03:23:00;16.00;99.90
57664;DHT22;43493;53.098;6.064;2022-08-21T03:25:29;16.00;99.90
57664;DHT22;43493;53.098;6.064;2022-08-21T03:27:57;16.00;99.90
57664;DHT22;43493;53.098;6.064;2022-08-21T03:30:23;16.00;99.90
57664;DHT22;43493;53.098;6.064;2022-08-21T03:32:49;16.00;99.90
57664;DHT22;43493;53.098;6.064;2022-08-21T03:35:17;16.00;99.90
57664;DHT22;43493;53.098;6.064;2022-08-21T03:37:43;16.00;99.90
57664;DHT22;43493;53.098;6.064;2022-08-21T03:40:11;15.90;99.90
57664;DHT22;43493;53.098;6.064;2022-08-21T03:42:37;15.90;99.90
57664;DHT22;43493;53.098;6.064;2022-08-21T03:45:04;16.00;99.90
57664;DHT22;43493;53.098;6.064;2022-08-21T03:47:30;16.00;99.90
57664;DHT22;43493;53.098;6.064;2022-08-21T03:49:56;16.00;99.90
57664;DHT22;43493;53.098;6.064;2022-08-21T03:52:22;16.00;99.90
57664;DHT22;43493;53.098;6.064;2022-08-21T03:54:48;16.00;99.90
57664;DHT22;43493;53.098;6.064;2022-08-21T03:57:16;16.00;99.90
57664;DHT22;43493;53.098;6.064;2022-08-21T03:59:42;15.90;99.90
57664;DHT22;43493;53.098;6.064;2022-08-21T04:02:08;15.90;99.90
57664;DHT22;43493;53.098;6.064;2022-08-21T04:04:35;15.90;99.90
57664;DHT22;43493;53.098;6.064;2022-08-21T04:07:01;15.80;99.90
57664;DHT22;43493;53.098;6.064;2022-08-21T04:09:27;15.80;99.90
57664;DHT22;43493;53.098;6.064;2022-08-21T04:11:53;15.80;99.90
57664;DHT22;43493;53.098;6.064;2022-08-21T04:14:19;15.80;99.90
57664;DHT22;43493;53.098;6.064;2022-08-21T04:16:45;15.80;99.90
57664;DHT22;43493;53.098;6.064;2022-08-21T04:19:12;15.80;99.90
57664;DHT22;43493;53.098;6.064;2022-08-21T04:21:39;15.80;99.90
57664;DHT22;43493;53.098;6.064;2022-08-21T04:24:06;15.80;99.90
57664;DHT22;43493;53.098;6.064;2022-08-21T04:26:37;15.80;99.90
57664;DHT22;43493;53.098;6.064;2022-08-21T04:29:04;15.80;99.90
57664;DHT22;43493;53.098;6.064;2022-08-21T04:31:32;15.80;99.90
57664;DHT22;43493;53.098;6.064;2022-08-21T04:33:58;15.80;99.90
57664;DHT22;43493;53.098;6.064;2022-08-21T04:36:24;15.80;99.90
57664;DHT22;43493;53.098;6.064;2022-08-21T04:38:50;15.80;99.90
57664;DHT22;43493;53.098;6.064;2022-08-21T04:41:16;15.70;99.90
57664;DHT22;43493;53.098;6.064;2022-08-21T04:43:42;15.80;99.90
57664;DHT22;43493;53.098;6.064;2022-08-21T04:46:08;15.80;99.90
57664;DHT22;43493;53.098;6.064;2022-08-21T04:48:34;15.80;99.90
57664;DHT22;43493;53.098;6.064;2022-08-21T04:51:22;15.80;99.90
57664;DHT22;43493;53.098;6.064;2022-08-21T04:54:00;15.80;99.90
57664;DHT22;43493;53.098;6.064;2022-08-21T04:56:42;15.80;99.90
57664;DHT22;43493;53.098;6.064;2022-08-21T04:59:17;15.80;99.90
57664;DHT22;43493;53.098;6.064;2022-08-21T05:01:44;15.80;99.90
57664;DHT22;43493;53.098;6.064;2022-08-21T05:04:13;15.80;99.90
57664;DHT22;43493;53.098;6.064;2022-08-21T05:06:41;15.90;99.90
57664;DHT22;43493;53.098;6.064;2022-08-21T05:09:09;15.90;99.90
57664;DHT22;43493;53.098;6.064;2022-08-21T05:11:38;15.90;99.90
57664;DHT22;43493;53.098;6.064;2022-08-21T05:14:03;15.90;99.90
57664;DHT22;43493;53.098;6.064;2022-08-21T05:16:29;15.90;99.90
57664;DHT22;43493;53.098;6.064;2022-08-21T05:18:55;16.00;99.90
57664;DHT22;43493;53.098;6.064;2022-08-21T05:21:20;16.00;99.90
57664;DHT22;43493;53.098;6.064;2022-08-21T05:23:46;16.00;99.90
57664;DHT22;43493;53.098;6.064;2022-08-21T05:26:12;16.00;99.90
57664;DHT22;43493;53.098;6.064;2022-08-21T05:28:38;16.10;99.90
57664;DHT22;43493;53.098;6.064;2022-08-21T05:31:03;16.10;99.90
57664;DHT22;43493;53.098;6.064;2022-08-21T05:33:29;16.10;99.90
57664;DHT22;43493;53.098;6.064;2022-08-21T05:35:55;16.20;99.90
57664;DHT22;43493;53.098;6.064;2022-08-21T05:38:22;16.20;99.90
57664;DHT22;43493;53.098;6.064;2022-08-21T05:40:48;16.20;99.90
57664;DHT22;43493;53.098;6.064;2022-08-21T05:43:14;16.30;99.90
57664;DHT22;43493;53.098;6.064;2022-08-21T05:45:41;16.40;99.90
57664;DHT22;43493;53.098;6.064;2022-08-21T05:48:08;16.40;99.90
57664;DHT22;43493;53.098;6.064;2022-08-21T05:50:35;16.50;99.90
57664;DHT22;43493;53.098;6.064;2022-08-21T05:53:03;16.60;99.90
57664;DHT22;43493;53.098;6.064;2022-08-21T05:55:29;16.60;99.90
57664;DHT22;43493;53.098;6.064;2022-08-21T05:57:54;16.80;99.90
57664;DHT22;43493;53.098;6.064;2022-08-21T06:00:20;17.30;99.90
57664;DHT22;43493;53.098;6.064;2022-08-21T06:02:49;18.40;99.90
57664;DHT22;43493;53.098;6.064;2022-08-21T06:05:15;19.60;99.90
57664;DHT22;43493;53.098;6.064;2022-08-21T06:07:41;20.70;99.90
57664;DHT22;43493;53.098;6.064;2022-08-21T06:10:07;22.40;99.90
57664;DHT22;43493;53.098;6.064;2022-08-21T06:12:33;22.50;99.90
57664;DHT22;43493;53.098;6.064;2022-08-21T06:14:58;23.40;99.90
57664;DHT22;43493;53.098;6.064;2022-08-21T06:19:52;24.90;99.90
57664;DHT22;43493;53.098;6.064;2022-08-21T06:22:18;25.40;99.90
57664;DHT22;43493;53.098;6.064;2022-08-21T06:24:44;26.10;90.20
57664;DHT22;43493;53.098;6.064;2022-08-21T06:27:09;26.50;95.20
57664;DHT22;43493;53.098;6.064;2022-08-21T06:29:35;27.10;93.40
57664;DHT22;43493;53.098;6.064;2022-08-21T06:32:02;27.40;87.60
57664;DHT22;43493;53.098;6.064;2022-08-21T06:36:56;28.00;64.80
57664;DHT22;43493;53.098;6.064;2022-08-21T06:39:21;28.10;72.50
57664;DHT22;43493;53.098;6.064;2022-08-21T06:41:47;28.80;69.80
57664;DHT22;43493;53.098;6.064;2022-08-21T06:44:15;28.50;67.30
57664;DHT22;43493;53.098;6.064;2022-08-21T06:46:41;27.50;65.10
57664;DHT22;43493;53.098;6.064;2022-08-21T06:49:07;26.50;68.10
57664;DHT22;43493;53.098;6.064;2022-08-21T06:51:33;25.60;71.40
57664;DHT22;43493;53.098;6.064;2022-08-21T06:53:58;24.20;83.30
57664;DHT22;43493;53.098;6.064;2022-08-21T06:56:24;24.20;83.70
57664;DHT22;43493;53.098;6.064;2022-08-21T06:58:50;24.10;89.00
57664;DHT22;43493;53.098;6.064;2022-08-21T07:01:15;24.40;90.50
57664;DHT22;43493;53.098;6.064;2022-08-21T07:03:42;25.20;90.80
57664;DHT22;43493;53.098;6.064;2022-08-21T07:06:09;26.40;84.60
57664;DHT22;43493;53.098;6.064;2022-08-21T07:08:37;27.50;77.30
57664;DHT22;43493;53.098;6.064;2022-08-21T07:11:11;28.40;71.40
57664;DHT22;43493;53.098;6.064;2022-08-21T07:13:37;29.20;64.20
57664;DHT22;43493;53.098;6.064;2022-08-21T07:16:03;29.60;75.80
57664;DHT22;43493;53.098;6.064;2022-08-21T07:18:28;30.30;60.30
57664;DHT22;43493;53.098;6.064;2022-08-21T07:20:55;30.30;57.90
57664;DHT22;43493;53.098;6.064;2022-08-21T07:23:42;30.70;56.90
57664;DHT22;43493;53.098;6.064;2022-08-21T07:26:09;31.20;54.70
57664;DHT22;43493;53.098;6.064;2022-08-21T07:28:35;30.20;53.40
57664;DHT22;43493;53.098;6.064;2022-08-21T07:31:02;29.30;54.50
57664;DHT22;43493;53.098;6.064;2022-08-21T07:33:29;28.60;56.30
57664;DHT22;43493;53.098;6.064;2022-08-21T07:35:55;28.80;57.50
57664;DHT22;43493;53.098;6.064;2022-08-21T07:38:21;29.50;56.80
57664;DHT22;43493;53.098;6.064;2022-08-21T07:40:48;30.00;56.30
57664;DHT22;43493;53.098;6.064;2022-08-21T07:43:14;30.20;55.40
57664;DHT22;43493;53.098;6.064;2022-08-21T07:45:43;29.90;55.10
57664;DHT22;43493;53.098;6.064;2022-08-21T07:48:09;30.20;55.10
57664;DHT22;43493;53.098;6.064;2022-08-21T07:50:35;30.80;54.90
57664;DHT22;43493;53.098;6.064;2022-08-21T07:53:02;30.80;52.70
57664;DHT22;43493;53.098;6.064;2022-08-21T07:55:28;31.10;52.50
57664;DHT22;43493;53.098;6.064;2022-08-21T07:57:54;31.40;52.20
57664;DHT22;43493;53.098;6.064;2022-08-21T08:00:22;31.40;51.90
57664;DHT22;43493;53.098;6.064;2022-08-21T08:02:50;30.90;52.50
57664;DHT22;43493;53.098;6.064;2022-08-21T08:05:19;30.30;53.30
57664;DHT22;43493;53.098;6.064;2022-08-21T08:07:45;29.70;54.20
57664;DHT22;43493;53.098;6.064;2022-08-21T08:10:11;29.20;55.30
57664;DHT22;43493;53.098;6.064;2022-08-21T08:12:39;28.90;72.20
57664;DHT22;43493;53.098;6.064;2022-08-21T08:15:08;28.10;57.60
57664;DHT22;43493;53.098;6.064;2022-08-21T08:17:34;27.70;59.30
57664;DHT22;43493;53.098;6.064;2022-08-21T08:20:00;27.40;61.60
57664;DHT22;43493;53.098;6.064;2022-08-21T08:22:28;27.30;62.00
57664;DHT22;43493;53.098;6.064;2022-08-21T08:24:54;27.00;64.00
57664;DHT22;43493;53.098;6.064;2022-08-21T08:27:21;26.70;66.90
57664;DHT22;43493;53.098;6.064;2022-08-21T08:29:47;26.50;67.60
57664;DHT22;43493;53.098;6.064;2022-08-21T08:32:13;26.40;68.60
57664;DHT22;43493;53.098;6.064;2022-08-21T08:34:40;26.40;70.50
57664;DHT22;43493;53.098;6.064;2022-08-21T08:37:07;26.40;71.70
57664;DHT22;43493;53.098;6.064;2022-08-21T08:39:33;26.30;73.30
57664;DHT22;43493;53.098;6.064;2022-08-21T08:46:57;26.10;77.00
57664;DHT22;43493;53.098;6.064;2022-08-21T08:49:33;26.10;79.20
57664;DHT22;43493;53.098;6.064;2022-08-21T08:54:39;26.00;80.50
57664;DHT22;43493;53.098;6.064;2022-08-21T08:57:10;26.00;82.60
57664;DHT22;43493;53.098;6.064;2022-08-21T08:59:41;26.00;82.90
57664;DHT22;43493;53.098;6.064;2022-08-21T09:02:11;25.90;82.10
57664;DHT22;43493;53.098;6.064;2022-08-21T09:04:38;25.60;83.30
57664;DHT22;43493;53.098;6.064;2022-08-21T09:13:00;25.40;91.20
57664;DHT22;43493;53.098;6.064;2022-08-21T09:15:36;25.50;91.00
57664;DHT22;43493;53.098;6.064;2022-08-21T09:18:31;25.60;90.90
57664;DHT22;43493;53.098;6.064;2022-08-21T09:21:09;25.60;90.30
57664;DHT22;43493;53.098;6.064;2022-08-21T09:26:04;25.40;88.90
57664;DHT22;43493;53.098;6.064;2022-08-21T09:28:35;25.30;90.60
57664;DHT22;43493;53.098;6.064;2022-08-21T09:31:06;25.30;90.60
57664;DHT22;43493;53.098;6.064;2022-08-21T09:33:32;25.10;90.50
57664;DHT22;43493;53.098;6.064;2022-08-21T09:35:58;25.10;90.70
57664;DHT22;43493;53.098;6.064;2022-08-21T09:38:33;25.00;91.00
57664;DHT22;43493;53.098;6.064;2022-08-21T09:41:08;25.10;91.00
57664;DHT22;43493;53.098;6.064;2022-08-21T09:43:36;25.10;90.00
57664;DHT22;43493;53.098;6.064;2022-08-21T09:46:23;25.20;90.20
57664;DHT22;43493;53.098;6.064;2022-08-21T09:48:52;25.20;90.40
57664;DHT22;43493;53.098;6.064;2022-08-21T09:51:21;25.10;90.60
57664;DHT22;43493;53.098;6.064;2022-08-21T09:56:39;24.80;87.90
57664;DHT22;43493;53.098;6.064;2022-08-21T09:59:31;24.60;89.50
57664;DHT22;43493;53.098;6.064;2022-08-21T10:01:59;24.60;90.60
57664;DHT22;43493;53.098;6.064;2022-08-21T10:04:31;24.60;91.70
57664;DHT22;43493;53.098;6.064;2022-08-21T10:07:11;24.60;92.50
57664;DHT22;43493;53.098;6.064;2022-08-21T10:09:38;24.50;93.00
57664;DHT22;43493;53.098;6.064;2022-08-21T10:17:25;24.10;96.50
57664;DHT22;43493;53.098;6.064;2022-08-21T10:20:04;24.10;96.70
57664;DHT22;43493;53.098;6.064;2022-08-21T10:25:52;24.20;96.50
57664;DHT22;43493;53.098;6.064;2022-08-21T10:28:29;24.30;96.90
57664;DHT22;43493;53.098;6.064;2022-08-21T10:31:07;24.40;96.70
57664;DHT22;43493;53.098;6.064;2022-08-21T10:36:35;24.40;95.40
57664;DHT22;43493;53.098;6.064;2022-08-21T10:42:17;24.40;94.80
57664;DHT22;43493;53.098;6.064;2022-08-21T10:45:01;24.50;93.50
57664;DHT22;43493;53.098;6.064;2022-08-21T10:47:46;24.50;94.30
57664;DHT22;43493;53.098;6.064;2022-08-21T10:50:32;24.40;93.60
57664;DHT22;43493;53.098;6.064;2022-08-21T10:56:12;24.20;94.30
57664;DHT22;43493;53.098;6.064;2022-08-21T11:01:29;24.10;91.80
57664;DHT22;43493;53.098;6.064;2022-08-21T11:06:38;24.10;91.50
57664;DHT22;43493;53.098;6.064;2022-08-21T11:09:17;24.10;90.10
57664;DHT22;43493;53.098;6.064;2022-08-21T11:11:54;24.10;89.40
57664;DHT22;43493;53.098;6.064;2022-08-21T11:14:28;24.20;87.70
57664;DHT22;43493;53.098;6.064;2022-08-21T11:17:07;24.30;86.50
57664;DHT22;43493;53.098;6.064;2022-08-21T11:19:47;24.30;86.80
57664;DHT22;43493;53.098;6.064;2022-08-21T11:22:40;24.20;87.50
57664;DHT22;43493;53.098;6.064;2022-08-21T11:25:19;24.00;87.40
57664;DHT22;43493;53.098;6.064;2022-08-21T11:27:57;23.90;91.80
57664;DHT22;43493;53.098;6.064;2022-08-21T11:30:30;23.80;90.40
57664;DHT22;43493;53.098;6.064;2022-08-21T11:36:02;23.80;90.90
57664;DHT22;43493;53.098;6.064;2022-08-21T11:38:41;23.70;90.80
57664;DHT22;43493;53.098;6.064;2022-08-21T11:41:52;23.80;91.20
57664;DHT22;43493;53.098;6.064;2022-08-21T11:49:46;23.90;89.70
57664;DHT22;43493;53.098;6.064;2022-08-21T11:52:22;23.90;87.70
57664;DHT22;43493;53.098;6.064;2022-08-21T11:54:59;23.90;87.20
57664;DHT22;43493;53.098;6.064;2022-08-21T12:00:34;23.90;87.70
57664;DHT22;43493;53.098;6.064;2022-08-21T12:03:11;24.00;87.10
57664;DHT22;43493;53.098;6.064;2022-08-21T12:05:42;24.10;87.00
57664;DHT22;43493;53.098;6.064;2022-08-21T12:10:46;24.20;86.10
57664;DHT22;43493;53.098;6.064;2022-08-21T12:13:24;24.20;86.30
57664;DHT22;43493;53.098;6.064;2022-08-21T12:15:50;24.30;87.00
57664;DHT22;43493;53.098;6.064;2022-08-21T12:18:36;24.30;86.80
57664;DHT22;43493;53.098;6.064;2022-08-21T12:21:23;24.30;87.20
57664;DHT22;43493;53.098;6.064;2022-08-21T12:24:03;24.30;86.80
57664;DHT22;43493;53.098;6.064;2022-08-21T12:26:34;24.30;86.80
57664;DHT22;43493;53.098;6.064;2022-08-21T12:29:16;24.20;86.50
57664;DHT22;43493;53.098;6.064;2022-08-21T12:34:50;24.20;89.30
57664;DHT22;43493;53.098;6.064;2022-08-21T12:39:47;24.10;90.10
57664;DHT22;43493;53.098;6.064;2022-08-21T12:42:19;24.00;90.70
57664;DHT22;43493;53.098;6.064;2022-08-21T12:44:54;24.00;91.70
57664;DHT22;43493;53.098;6.064;2022-08-21T12:50:09;23.80;92.50
57664;DHT22;43493;53.098;6.064;2022-08-21T12:52:41;23.90;92.70
57664;DHT22;43493;53.098;6.064;2022-08-21T12:55:14;23.80;92.90
57664;DHT22;43493;53.098;6.064;2022-08-21T12:57:41;23.80;93.40
57664;DHT22;43493;53.098;6.064;2022-08-21T13:00:10;23.80;93.90
57664;DHT22;43493;53.098;6.064;2022-08-21T13:02:47;23.90;94.30
57664;DHT22;43493;53.098;6.064;2022-08-21T13:05:16;23.90;94.50
57664;DHT22;43493;53.098;6.064;2022-08-21T13:07:47;24.00;94.40
57664;DHT22;43493;53.098;6.064;2022-08-21T13:10:32;23.90;94.20
57664;DHT22;43493;53.098;6.064;2022-08-21T13:13:04;24.00;94.50
57664;DHT22;43493;53.098;6.064;2022-08-21T13:15:37;24.00;93.80
57664;DHT22;43493;53.098;6.064;2022-08-21T13:18:05;24.00;93.60
57664;DHT22;43493;53.098;6.064;2022-08-21T13:20:38;24.00;92.90
57664;DHT22;43493;53.098;6.064;2022-08-21T13:23:25;24.00;93.20
57664;DHT22;43493;53.098;6.064;2022-08-21T13:25:52;24.10;93.50
57664;DHT22;43493;53.098;6.064;2022-08-21T13:28:18;24.10;93.20
57664;DHT22;43493;53.098;6.064;2022-08-21T13:30:49;24.20;90.80
57664;DHT22;43493;53.098;6.064;2022-08-21T13:33:18;24.20;87.00
57664;DHT22;43493;53.098;6.064;2022-08-21T13:38:29;24.20;82.80
57664;DHT22;43493;53.098;6.064;2022-08-21T13:41:02;24.10;82.50
57664;DHT22;43493;53.098;6.064;2022-08-21T13:43:32;24.00;81.40
57664;DHT22;43493;53.098;6.064;2022-08-21T13:46:00;24.00;81.20
57664;DHT22;43493;53.098;6.064;2022-08-21T13:48:29;24.00;81.00
57664;DHT22;43493;53.098;6.064;2022-08-21T13:50:58;24.00;81.00
57664;DHT22;43493;53.098;6.064;2022-08-21T13:56:02;24.00;79.70
57664;DHT22;43493;53.098;6.064;2022-08-21T13:58:50;24.00;79.50
57664;DHT22;43493;53.098;6.064;2022-08-21T14:01:37;23.90;77.00
57664;DHT22;43493;53.098;6.064;2022-08-21T14:04:27;23.90;77.70
57664;DHT22;43493;53.098;6.064;2022-08-21T14:06:56;23.80;78.50
57664;DHT22;43493;53.098;6.064;2022-08-21T14:09:34;23.80;79.60
57664;DHT22;43493;53.098;6.064;2022-08-21T14:12:03;23.80;81.50
57664;DHT22;43493;53.098;6.064;2022-08-21T14:14:38;23.70;81.00
57664;DHT22;43493;53.098;6.064;2022-08-21T14:17:07;23.80;81.80
57664;DHT22;43493;53.098;6.064;2022-08-21T14:19:43;23.80;82.90
57664;DHT22;43493;53.098;6.064;2022-08-21T14:22:44;23.90;82.60
57664;DHT22;43493;53.098;6.064;2022-08-21T14:25:27;24.00;81.00
57664;DHT22;43493;53.098;6.064;2022-08-21T14:27:57;23.90;79.40
57664;DHT22;43493;53.098;6.064;2022-08-21T14:30:31;23.90;78.20
57664;DHT22;43493;53.098;6.064;2022-08-21T14:32:59;23.90;79.50
57664;DHT22;43493;53.098;6.064;2022-08-21T14:35:25;23.80;80.90
57664;DHT22;43493;53.098;6.064;2022-08-21T14:37:51;23.80;81.00
57664;DHT22;43493;53.098;6.064;2022-08-21T14:40:18;23.70;79.90
57664;DHT22;43493;53.098;6.064;2022-08-21T14:42:45;23.80;80.20
57664;DHT22;43493;53.098;6.064;2022-08-21T14:45:17;23.70;81.10
57664;DHT22;43493;53.098;6.064;2022-08-21T14:47:43;23.70;81.90
57664;DHT22;43493;53.098;6.064;2022-08-21T14:50:11;23.70;82.00
57664;DHT22;43493;53.098;6.064;2022-08-21T14:52:37;23.70;83.20
57664;DHT22;43493;53.098;6.064;2022-08-21T14:55:05;23.80;82.90
57664;DHT22;43493;53.098;6.064;2022-08-21T14:57:31;23.70;82.00
57664;DHT22;43493;53.098;6.064;2022-08-21T14:59:57;23.70;82.10
57664;DHT22;43493;53.098;6.064;2022-08-21T15:02:25;23.70;81.60
57664;DHT22;43493;53.098;6.064;2022-08-21T15:04:50;23.70;81.90
57664;DHT22;43493;53.098;6.064;2022-08-21T15:07:16;23.70;82.30
57664;DHT22;43493;53.098;6.064;2022-08-21T15:09:42;23.70;79.60
57664;DHT22;43493;53.098;6.064;2022-08-21T15:12:08;23.60;79.20
57664;DHT22;43493;53.098;6.064;2022-08-21T15:17:03;23.60;78.60
57664;DHT22;43493;53.098;6.064;2022-08-21T15:19:29;23.60;80.90
57664;DHT22;43493;53.098;6.064;2022-08-21T15:21:55;23.50;82.20
57664;DHT22;43493;53.098;6.064;2022-08-21T15:24:21;23.50;83.80
57664;DHT22;43493;53.098;6.064;2022-08-21T15:26:47;23.40;85.30
57664;DHT22;43493;53.098;6.064;2022-08-21T15:29:14;23.40;86.80
57664;DHT22;43493;53.098;6.064;2022-08-21T15:31:55;23.40;87.70
57664;DHT22;43493;53.098;6.064;2022-08-21T15:34:22;23.50;88.80
57664;DHT22;43493;53.098;6.064;2022-08-21T15:36:48;23.50;89.50
57664;DHT22;43493;53.098;6.064;2022-08-21T15:39:14;23.40;89.70
57664;DHT22;43493;53.098;6.064;2022-08-21T15:41:40;23.40;90.20
57664;DHT22;43493;53.098;6.064;2022-08-21T15:44:06;23.40;90.30
57664;DHT22;43493;53.098;6.064;2022-08-21T15:46:32;23.30;90.40
57664;DHT22;43493;53.098;6.064;2022-08-21T15:48:57;23.30;90.70
57664;DHT22;43493;53.098;6.064;2022-08-21T15:51:23;23.30;90.90
57664;DHT22;43493;53.098;6.064;2022-08-21T15:53:49;23.30;91.10
57664;DHT22;43493;53.098;6.064;2022-08-21T15:56:21;23.40;91.50
57664;DHT22;43493;53.098;6.064;2022-08-21T15:58:49;23.40;91.00
57664;DHT22;43493;53.098;6.064;2022-08-21T16:01:15;23.30;90.90
57664;DHT22;43493;53.098;6.064;2022-08-21T16:03:43;23.30;90.60
57664;DHT22;43493;53.098;6.064;2022-08-21T16:06:12;23.30;90.50
57664;DHT22;43493;53.098;6.064;2022-08-21T16:08:38;23.20;90.30
57664;DHT22;43493;53.098;6.064;2022-08-21T16:11:04;23.20;90.50
57664;DHT22;43493;53.098;6.064;2022-08-21T16:13:36;23.20;90.80
57664;DHT22;43493;53.098;6.064;2022-08-21T16:16:04;23.20;90.70
57664;DHT22;43493;53.098;6.064;2022-08-21T16:18:30;23.20;90.90
57664;DHT22;43493;53.098;6.064;2022-08-21T16:20:56;23.20;91.00
57664;DHT22;43493;53.098;6.064;2022-08-21T16:23:22;23.10;90.90
57664;DHT22;43493;53.098;6.064;2022-08-21T16:25:48;23.10;91.00
57664;DHT22;43493;53.098;6.064;2022-08-21T16:28:15;23.10;91.00
57664;DHT22;43493;53.098;6.064;2022-08-21T16:30:48;23.00;90.60
57664;DHT22;43493;53.098;6.064;2022-08-21T16:33:34;23.00;91.10
57664;DHT22;43493;53.098;6.064;2022-08-21T16:36:00;22.90;90.60
57664;DHT22;43493;53.098;6.064;2022-08-21T16:38:29;22.90;90.40
57664;DHT22;43493;53.098;6.064;2022-08-21T16:40:58;22.80;89.40
57664;DHT22;43493;53.098;6.064;2022-08-21T16:43:27;22.80;89.70
57664;DHT22;43493;53.098;6.064;2022-08-21T16:45:55;22.80;88.00
57664;DHT22;43493;53.098;6.064;2022-08-21T16:48:21;22.70;89.00
57664;DHT22;43493;53.098;6.064;2022-08-21T16:50:47;22.70;88.10
57664;DHT22;43493;53.098;6.064;2022-08-21T16:53:13;22.70;87.70
57664;DHT22;43493;53.098;6.064;2022-08-21T16:55:39;22.70;88.30
57664;DHT22;43493;53.098;6.064;2022-08-21T16:58:43;22.60;87.80
57664;DHT22;43493;53.098;6.064;2022-08-21T17:01:07;22.60;87.50